createdAt,value
2018-04-19T00:00:49.378Z,21.4
2018-04-19T00:01:39.393Z,21.4
2018-04-19T00:02:29.779Z,21.4
2018-04-19T00:03:19.889Z,21.4
2018-04-19T00:04:09.626Z,21.4
2018-04-19T00:05:00.006Z,21.4
2018-04-19T00:05:50.024Z,21.4
2018-04-19T00:06:40.338Z,21.4
2018-04-19T00:07:30.150Z,21.4
2018-04-19T00:08:20.481Z,21.4
2018-04-19T00:09:10.308Z,21.4
2018-04-19T00:10:00.638Z,21.4
2018-04-19T00:10:50.468Z,21.4
2018-04-19T00:11:40.746Z,21.4
2018-04-19T00:12:30.791Z,21.4
2018-04-19T00:13:20.345Z,21.4
2018-04-19T00:14:10.680Z,21.4
2018-04-19T00:15:00.745Z,21.4
2018-04-19T00:15:50.780Z,21.4
2018-04-19T00:16:41.122Z,21.4
2018-04-19T00:17:31.180Z,21.4
2018-04-19T00:18:20.982Z,21.4
2018-04-19T00:19:11.282Z,21.4
2018-04-19T00:20:00.822Z,21.4
2018-04-19T00:20:51.242Z,21.4
2018-04-19T00:21:41.202Z,21.4
2018-04-19T00:22:31.561Z,21.4
2018-04-19T00:23:21.343Z,21.4
2018-04-19T00:24:11.414Z,21.4
2018-04-19T00:25:01.499Z,21.5
2018-04-19T00:25:51.806Z,21.4
2018-04-19T00:26:41.874Z,21.4
2018-04-19T00:27:31.959Z,21.4
2018-04-19T00:28:22.001Z,21.5
2018-04-19T00:29:12.063Z,21.4
2018-04-19T00:30:01.873Z,21.4
2018-04-19T00:30:52.173Z,21.4
2018-04-19T00:31:41.973Z,21.4
2018-04-19T00:32:32.071Z,21.4
2018-04-19T00:33:21.369Z,21.4
2018-04-19T00:34:12.423Z,21.5
2018-04-19T00:35:02.524Z,21.5
2018-04-19T00:35:52.328Z,21.5
2018-04-19T00:36:42.621Z,21.4
2018-04-19T00:37:32.442Z,21.5
2018-04-19T00:38:22.760Z,21.5
2018-04-19T00:39:12.809Z,21.5
2018-04-19T00:40:02.628Z,21.5
2018-04-19T00:40:52.656Z,21.5
2018-04-19T00:41:43.029Z,21.5
2018-04-19T00:42:33.116Z,21.5
2018-04-19T00:43:23.139Z,21.5
2018-04-19T00:44:12.915Z,21.5
2018-04-19T00:45:03.029Z,21.5
2018-04-19T00:45:53.078Z,21.5
2018-04-19T00:46:42.882Z,21.5
2018-04-19T00:47:32.919Z,21.5
2018-04-19T00:48:23.294Z,21.5
2018-04-19T00:49:13.586Z,21.5
2018-04-19T00:50:03.479Z,21.5
2018-04-19T00:50:53.416Z,21.5
2018-04-19T00:51:43.793Z,21.5
2018-04-19T00:52:33.283Z,21.5
2018-04-19T00:53:23.893Z,21.5
2018-04-19T00:54:13.424Z,21.5
2018-04-19T00:55:04.011Z,21.5
2018-04-19T00:55:53.527Z,21.5
2018-04-19T00:56:43.946Z,21.5
2018-04-19T00:57:33.683Z,21.5
2018-04-19T00:58:24.283Z,21.5
2018-04-19T00:59:14.111Z,21.5
2018-04-19T01:00:03.904Z,21.5
2018-04-19T01:00:54.459Z,21.5
2018-04-19T01:01:44.533Z,21.5
2018-04-19T01:02:34.315Z,21.5
2018-04-19T01:03:24.398Z,21.5
2018-04-19T01:04:14.505Z,21.5
2018-04-19T01:05:04.555Z,21.5
2018-04-19T01:05:54.898Z,21.5
2018-04-19T01:06:44.933Z,21.5
2018-04-19T01:07:34.973Z,21.5
2018-04-19T01:08:25.040Z,21.5
2018-04-19T01:09:15.108Z,21.5
2018-04-19T01:10:04.592Z,21.5
2018-04-19T01:10:54.961Z,21.5
2018-04-19T01:11:45.045Z,21.5
2018-04-19T01:12:34.894Z,21.5
2018-04-19T01:13:24.942Z,21.5
2018-04-19T01:14:14.997Z,21.5
2018-04-19T01:15:04.791Z,21.5
2018-04-19T01:15:55.116Z,21.5
2018-04-19T01:16:45.373Z,21.5
2018-04-19T01:17:35.482Z,21.5
2018-04-19T01:18:25.507Z,21.5
2018-04-19T01:19:15.352Z,21.6
2018-04-19T01:20:04.839Z,21.5
2018-04-19T01:20:55.979Z,21.5
2018-04-19T01:21:45.777Z,21.6
2018-04-19T01:22:35.838Z,21.6
2018-04-19T01:23:26.179Z,21.6
2018-04-19T01:24:16.001Z,21.6
2018-04-19T01:25:05.761Z,21.6
2018-04-19T01:25:56.093Z,21.6
2018-04-19T01:26:46.429Z,21.6
2018-04-19T01:27:36.184Z,21.6
2018-04-19T01:28:25.746Z,21.6
2018-04-19T01:29:16.095Z,21.6
2018-04-19T01:30:06.151Z,21.6
2018-04-19T01:30:56.483Z,21.6
2018-04-19T01:31:46.545Z,21.6
2018-04-19T01:32:36.700Z,21.6
2018-04-19T01:33:26.931Z,21.6
2018-04-19T01:34:16.459Z,21.6
2018-04-19T01:35:06.792Z,21.6
2018-04-19T01:35:57.153Z,21.6
2018-04-19T01:36:47.171Z,21.6
2018-04-19T01:37:37.291Z,21.6
2018-04-19T01:38:27.336Z,21.6
2018-04-19T01:39:17.358Z,21.6
2018-04-19T01:40:07.448Z,21.6
2018-04-19T01:40:56.925Z,21.6
2018-04-19T01:41:47.606Z,21.6
2018-04-19T01:42:36.790Z,21.6
2018-04-19T01:43:27.670Z,21.6
2018-04-19T01:44:17.480Z,21.6
2018-04-19T01:45:07.530Z,21.6
2018-04-19T01:45:57.881Z,21.6
2018-04-19T01:46:47.698Z,21.6
2018-04-19T01:47:37.750Z,21.6
2018-04-19T01:48:28.078Z,21.6
2018-04-19T01:49:18.180Z,21.6
2018-04-19T01:50:08.186Z,21.6
2018-04-19T01:50:58.250Z,21.6
2018-04-19T01:51:47.785Z,21.6
2018-04-19T01:52:38.128Z,21.6
2018-04-19T01:53:27.910Z,21.6
2018-04-19T01:54:18.500Z,21.6
2018-04-19T01:55:08.580Z,21.6
2018-04-19T01:55:58.365Z,21.6
2018-04-19T01:56:48.156Z,21.6
2018-04-19T01:57:38.500Z,21.6
2018-04-19T01:58:28.829Z,21.6
2018-04-19T01:59:18.903Z,21.6
2018-04-19T02:00:07.863Z,21.6
2018-04-19T02:00:57.984Z,21.6
2018-04-19T02:01:48.264Z,21.6
2018-04-19T02:02:38.632Z,21.6
2018-04-19T02:03:28.384Z,21.6
2018-04-19T02:04:18.744Z,21.6
2018-04-19T02:05:09.104Z,21.6
2018-04-19T02:05:58.061Z,21.6
2018-04-19T02:06:48.921Z,21.6
2018-04-19T02:07:38.687Z,21.6
2018-04-19T02:08:28.149Z,21.6
2018-04-19T02:09:19.421Z,21.6
2018-04-19T02:10:08.879Z,21.6
2018-04-19T02:10:59.506Z,21.6
2018-04-19T02:11:48.424Z,21.6
2018-04-19T02:12:39.213Z,21.6
2018-04-19T02:13:28.569Z,21.6
2018-04-19T02:14:18.634Z,21.6
2018-04-19T02:15:08.601Z,21.6
2018-04-19T02:15:59.220Z,21.6
2018-04-19T02:16:48.716Z,21.6
2018-04-19T02:17:39.253Z,21.6
2018-04-19T02:18:29.356Z,21.6
2018-04-19T02:19:19.403Z,21.6
2018-04-19T02:20:09.361Z,21.6
2018-04-19T02:21:00.035Z,21.6
2018-04-19T02:21:49.482Z,21.6
2018-04-19T02:22:39.933Z,21.6
2018-04-19T02:23:29.888Z,21.6
2018-04-19T02:24:19.587Z,21.6
2018-04-19T02:25:10.035Z,21.6
2018-04-19T02:26:00.173Z,21.6
2018-04-19T02:26:49.983Z,21.6
2018-04-19T02:27:41.093Z,21.6
2018-04-19T02:28:31.180Z,21.7
2018-04-19T02:29:20.685Z,21.7
2018-04-19T02:30:09.863Z,21.7
2018-04-19T02:30:59.617Z,21.6
2018-04-19T02:31:50.052Z,21.6
2018-04-19T02:32:40.595Z,21.6
2018-04-19T02:33:31.275Z,21.6
2018-04-19T02:34:20.463Z,21.6
2018-04-19T02:35:11.192Z,21.7
2018-04-19T02:36:01.713Z,21.7
2018-04-19T02:36:51.508Z,21.6
2018-04-19T02:37:41.795Z,21.6
2018-04-19T02:38:31.606Z,21.6
2018-04-19T02:39:21.373Z,21.7
2018-04-19T02:40:11.197Z,21.7
2018-04-19T02:41:02.095Z,21.6
2018-04-19T02:41:51.875Z,21.6
2018-04-19T02:42:42.219Z,21.6
2018-04-19T02:43:32.012Z,21.7
2018-04-19T02:44:22.299Z,21.7
2018-04-19T02:45:11.856Z,21.7
2018-04-19T02:46:02.509Z,21.7
2018-04-19T02:46:52.228Z,21.7
2018-04-19T02:47:42.325Z,21.7
2018-04-19T02:48:31.822Z,21.7
2018-04-19T02:49:22.794Z,21.7
2018-04-19T02:50:12.486Z,21.7
2018-04-19T02:51:02.560Z,21.7
2018-04-19T02:51:52.616Z,21.7
2018-04-19T02:52:42.744Z,21.7
2018-04-19T02:53:32.754Z,21.7
2018-04-19T02:54:22.591Z,21.7
2018-04-19T02:55:12.887Z,21.7
2018-04-19T02:56:03.255Z,21.7
2018-04-19T02:56:53.024Z,21.7
2018-04-19T02:57:43.115Z,21.7
2018-04-19T02:58:32.188Z,21.7
2018-04-19T02:59:22.431Z,21.7
2018-04-19T03:00:13.417Z,21.7
2018-04-19T03:01:02.871Z,21.8
2018-04-19T03:01:52.823Z,21.7
2018-04-19T03:02:42.499Z,21.7
2018-04-19T03:03:33.557Z,21.7
2018-04-19T03:04:23.178Z,21.7
2018-04-19T03:05:12.820Z,21.7
2018-04-19T03:06:02.458Z,21.7
2018-04-19T03:06:53.515Z,21.8
2018-04-19T03:07:42.783Z,21.8
2018-04-19T03:08:33.627Z,21.8
2018-04-19T03:09:23.427Z,21.7
2018-04-19T03:10:13.579Z,21.7
2018-04-19T03:11:04.105Z,21.7
2018-04-19T03:11:53.842Z,21.8
2018-04-19T03:12:43.925Z,21.8
2018-04-19T03:13:34.031Z,21.8
2018-04-19T03:14:23.458Z,21.8
2018-04-19T03:15:13.818Z,21.8
2018-04-19T03:16:04.160Z,21.8
2018-04-19T03:16:54.057Z,21.8
2018-04-19T03:17:43.624Z,21.8
2018-04-19T03:18:33.667Z,21.8
2018-04-19T03:19:24.557Z,21.8
2018-04-19T03:20:14.604Z,21.8
2018-04-19T03:21:04.112Z,21.8
2018-04-19T03:21:54.111Z,21.8
2018-04-19T03:22:44.500Z,21.8
2018-04-19T03:23:33.985Z,21.7
2018-04-19T03:24:24.054Z,21.7
2018-04-19T03:25:14.311Z,21.7
2018-04-19T03:26:04.092Z,21.7
2018-04-19T03:26:53.941Z,21.7
2018-04-19T03:27:44.619Z,21.7
2018-04-19T03:28:34.275Z,21.7
2018-04-19T03:29:25.313Z,21.7
2018-04-19T03:30:14.505Z,21.7
2018-04-19T03:31:05.907Z,21.7
2018-04-19T03:31:54.788Z,21.7
2018-04-19T03:32:45.968Z,21.7
2018-04-19T03:33:35.767Z,21.7
2018-04-19T03:34:25.847Z,21.7
2018-04-19T03:35:15.890Z,21.7
2018-04-19T03:36:05.975Z,21.7
2018-04-19T03:36:55.792Z,21.7
2018-04-19T03:37:45.557Z,21.7
2018-04-19T03:38:36.510Z,21.6
2018-04-19T03:39:25.644Z,21.7
2018-04-19T03:40:16.308Z,21.6
2018-04-19T03:41:06.071Z,21.6
2018-04-19T03:41:56.676Z,21.6
2018-04-19T03:42:46.496Z,21.6
2018-04-19T03:43:35.977Z,21.7
2018-04-19T03:44:26.313Z,21.6
2018-04-19T03:45:16.092Z,21.6
2018-04-19T03:46:06.993Z,21.6
2018-04-19T03:46:57.060Z,21.6
2018-04-19T03:47:47.133Z,21.6
2018-04-19T03:48:37.635Z,21.6
2018-04-19T03:49:26.953Z,21.6
2018-04-19T03:50:17.364Z,21.6
2018-04-19T03:51:07.348Z,21.6
2018-04-19T03:51:56.868Z,21.6
2018-04-19T03:52:47.233Z,21.6
2018-04-19T03:53:37.023Z,21.6
2018-04-19T03:54:27.443Z,21.6
2018-04-19T03:55:17.170Z,21.6
2018-04-19T03:56:07.755Z,21.6
2018-04-19T03:56:57.540Z,21.6
2018-04-19T03:57:47.855Z,21.6
2018-04-19T03:58:36.853Z,21.6
2018-04-19T03:59:28.060Z,21.6
2018-04-19T04:00:17.797Z,21.6
2018-04-19T04:01:08.796Z,21.6
2018-04-19T04:01:57.925Z,21.6
2018-04-19T04:02:48.237Z,21.6
2018-04-19T04:03:38.027Z,21.6
2018-04-19T04:04:28.110Z,21.6
2018-04-19T04:05:17.607Z,21.6
2018-04-19T04:06:08.523Z,21.6
2018-04-19T04:06:58.565Z,21.6
2018-04-19T04:07:48.416Z,21.6
2018-04-19T04:08:38.707Z,21.6
2018-04-19T04:09:28.479Z,21.6
2018-04-19T04:10:18.258Z,21.6
2018-04-19T04:11:08.902Z,21.6
2018-04-19T04:11:58.674Z,21.6
2018-04-19T04:12:48.505Z,21.6
2018-04-19T04:13:38.514Z,21.6
2018-04-19T04:14:29.165Z,21.6
2018-04-19T04:15:18.945Z,21.6
2018-04-19T04:16:08.712Z,21.6
2018-04-19T04:16:58.175Z,21.6
2018-04-19T04:17:49.383Z,21.6
2018-04-19T04:18:39.463Z,21.6
2018-04-19T04:19:28.978Z,21.6
2018-04-19T04:20:19.061Z,21.6
2018-04-19T04:21:09.651Z,21.6
2018-04-19T04:21:59.696Z,21.6
2018-04-19T04:22:49.485Z,21.6
2018-04-19T04:23:39.541Z,21.6
2018-04-19T04:24:29.905Z,21.6
2018-04-19T04:25:19.666Z,21.6
2018-04-19T04:26:09.448Z,21.6
2018-04-19T04:26:58.961Z,21.6
2018-04-19T04:27:49.864Z,21.6
2018-04-19T04:28:40.207Z,21.6
2018-04-19T04:29:30.026Z,21.6
2018-04-19T04:30:20.352Z,21.6
2018-04-19T04:31:11.139Z,21.6
2018-04-19T04:32:00.473Z,21.6
2018-04-19T04:32:50.532Z,21.6
2018-04-19T04:33:40.309Z,21.6
2018-04-19T04:34:30.371Z,21.6
2018-04-19T04:35:20.899Z,21.6
2018-04-19T04:36:10.758Z,21.6
2018-04-19T04:37:00.049Z,21.6
2018-04-19T04:37:50.633Z,21.6
2018-04-19T04:38:40.243Z,21.6
2018-04-19T04:39:30.776Z,21.6
2018-04-19T04:40:20.601Z,21.6
2018-04-19T04:41:10.708Z,21.6
2018-04-19T04:42:00.713Z,21.6
2018-04-19T04:42:50.494Z,21.6
2018-04-19T04:43:40.290Z,21.6
2018-04-19T04:44:30.906Z,21.6
2018-04-19T04:45:20.126Z,21.6
2018-04-19T04:46:11.008Z,21.5
2018-04-19T04:47:01.044Z,21.6
2018-04-19T04:47:51.922Z,21.5
2018-04-19T04:48:40.603Z,21.5
2018-04-19T04:49:31.834Z,21.5
2018-04-19T04:50:21.862Z,21.5
2018-04-19T04:51:11.904Z,21.5
2018-04-19T04:52:01.448Z,21.5
2018-04-19T04:52:51.773Z,21.5
2018-04-19T04:53:40.968Z,21.6
2018-04-19T04:54:32.183Z,21.5
2018-04-19T04:55:22.215Z,21.5
2018-04-19T04:56:11.448Z,21.5
2018-04-19T04:57:02.364Z,21.5
2018-04-19T04:57:51.848Z,21.5
2018-04-19T04:58:42.476Z,21.5
2018-04-19T04:59:32.520Z,21.5
2018-04-19T05:00:22.060Z,21.5
2018-04-19T05:01:12.379Z,21.6
2018-04-19T05:02:02.743Z,21.5
2018-04-19T05:02:52.517Z,21.5
2018-04-19T05:03:42.600Z,21.5
2018-04-19T05:04:32.363Z,21.5
2018-04-19T05:05:22.443Z,21.6
2018-04-19T05:06:11.915Z,21.6
2018-04-19T05:07:02.563Z,21.5
2018-04-19T05:07:52.867Z,21.5
2018-04-19T05:08:43.227Z,21.5
2018-04-19T05:09:33.052Z,21.6
2018-04-19T05:10:23.120Z,21.6
2018-04-19T05:11:12.584Z,21.6
2018-04-19T05:12:03.515Z,21.5
2018-04-19T05:12:53.546Z,21.5
2018-04-19T05:13:43.046Z,21.6
2018-04-19T05:14:33.182Z,21.5
2018-04-19T05:15:23.757Z,21.6
2018-04-19T05:16:13.518Z,21.6
2018-04-19T05:17:03.587Z,21.5
2018-04-19T05:17:53.643Z,21.5
2018-04-19T05:18:43.717Z,21.6
2018-04-19T05:19:33.777Z,21.6
2018-04-19T05:20:23.613Z,21.6
2018-04-19T05:21:13.422Z,21.6
2018-04-19T05:22:03.102Z,21.6
2018-04-19T05:22:53.732Z,21.6
2018-04-19T05:23:43.801Z,21.6
2018-04-19T05:24:34.129Z,21.5
2018-04-19T05:25:23.943Z,21.6
2018-04-19T05:26:14.569Z,21.5
2018-04-19T05:27:04.614Z,21.5
2018-04-19T05:27:54.144Z,21.6
2018-04-19T05:28:44.467Z,21.6
2018-04-19T05:29:34.825Z,21.6
2018-04-19T05:30:24.585Z,21.6
2018-04-19T05:31:14.123Z,21.6
2018-04-19T05:32:04.442Z,21.6
2018-04-19T05:32:54.754Z,21.6
2018-04-19T05:33:44.569Z,21.6
2018-04-19T05:34:34.611Z,21.6
2018-04-19T05:35:25.396Z,21.6
2018-04-19T05:36:14.751Z,21.6
2018-04-19T05:37:04.612Z,21.6
2018-04-19T05:37:55.135Z,21.6
2018-04-19T05:38:45.230Z,21.6
2018-04-19T05:39:34.216Z,21.6
2018-04-19T05:40:25.593Z,21.6
2018-04-19T05:41:15.140Z,21.6
2018-04-19T05:42:05.158Z,21.6
2018-04-19T05:42:55.523Z,21.6
2018-04-19T05:43:45.606Z,26.2
2018-04-19T05:44:35.617Z,27.4
2018-04-19T05:45:25.454Z,30.7
2018-04-19T05:46:16.042Z,32.3
2018-04-19T05:47:05.562Z,31.7
2018-04-19T05:47:55.627Z,29.7
2018-04-19T05:49:36.302Z,26.9
2018-04-19T05:50:25.817Z,26.4
2018-04-19T05:51:16.413Z,26.1
2018-04-19T05:52:05.672Z,25.9
2018-04-19T05:52:56.572Z,25.7
2018-04-19T05:53:46.369Z,25.5
2018-04-19T05:54:36.562Z,25.4
2018-04-19T05:55:26.787Z,25.3
2018-04-19T05:56:16.823Z,25.2
2018-04-19T05:57:06.893Z,25.1
2018-04-19T05:57:56.701Z,25
2018-04-19T05:58:46.124Z,24.9
2018-04-19T05:59:36.772Z,24.8
2018-04-19T06:00:26.242Z,28.3
2018-04-19T06:01:17.164Z,30
2018-04-19T06:02:07.286Z,32.7
2018-04-19T06:02:57.012Z,33.9
2018-04-19T06:03:47.072Z,34
2018-04-19T06:04:37.138Z,33.6
2018-04-19T06:05:26.956Z,33.5
2018-04-19T06:06:16.965Z,33.6
2018-04-19T06:07:07.091Z,33.9
2018-04-19T06:07:57.425Z,34.2
2018-04-19T06:08:47.453Z,34.4
2018-04-19T06:09:37.848Z,34.5
2018-04-19T06:10:27.894Z,34.6
2018-04-19T06:11:17.440Z,34.7
2018-04-19T06:12:06.667Z,34.9
2018-04-19T06:12:57.294Z,35
2018-04-19T06:13:47.671Z,35.2
2018-04-19T06:14:37.138Z,35.3
2018-04-19T06:15:27.481Z,35.4
2018-04-19T06:16:17.835Z,35.6
2018-04-19T06:17:07.608Z,35.7
2018-04-19T06:17:58.453Z,35.9
2018-04-19T06:18:47.364Z,36
2018-04-19T06:19:37.985Z,36.1
2018-04-19T06:20:28.090Z,36.3
2018-04-19T06:21:18.123Z,36.4
2018-04-19T06:22:08.743Z,36.5
2018-04-19T06:22:58.251Z,36.6
2018-04-19T06:23:48.599Z,36.8
2018-04-19T06:24:38.920Z,36.9
2018-04-19T06:25:28.976Z,37.1
2018-04-19T06:26:19.062Z,37.2
2018-04-19T06:27:07.984Z,37.3
2018-04-19T06:27:59.145Z,37.4
2018-04-19T06:28:48.953Z,37.6
2018-04-19T06:29:39.025Z,37.7
2018-04-19T06:30:29.367Z,37.9
2018-04-19T06:31:19.152Z,38
2018-04-19T06:32:09.484Z,38.2
2018-04-19T06:32:59.263Z,38.3
2018-04-19T06:33:49.043Z,38.4
2018-04-19T06:34:39.423Z,38.6
2018-04-19T06:35:28.593Z,38.7
2018-04-19T06:36:19.502Z,38.8
2018-04-19T06:37:09.591Z,38.9
2018-04-19T06:37:59.954Z,39.1
2018-04-19T06:38:49.151Z,39.2
2018-04-19T06:39:39.769Z,39.3
2018-04-19T06:40:30.117Z,39.5
2018-04-19T06:41:19.917Z,39.6
2018-04-19T06:42:10.246Z,39.8
2018-04-19T06:43:00.029Z,39.9
2018-04-19T06:43:50.372Z,40
2018-04-19T06:44:40.154Z,40.1
2018-04-19T06:45:30.465Z,40.3
2018-04-19T06:46:19.426Z,40.4
2018-04-19T06:47:10.641Z,40.6
2018-04-19T06:48:00.130Z,40.7
2018-04-19T06:48:50.205Z,40.8
2018-04-19T06:49:40.279Z,40.9
2018-04-19T06:50:30.859Z,41
2018-04-19T06:51:21.224Z,41.1
2018-04-19T06:52:10.428Z,41.3
2018-04-19T06:53:00.564Z,41.4
2018-04-19T06:53:51.139Z,41.6
2018-04-19T06:54:41.194Z,41.7
2018-04-19T06:55:30.456Z,41.8
2018-04-19T06:56:21.053Z,41.9
2018-04-19T06:57:11.128Z,42
2018-04-19T06:58:01.451Z,42.1
2018-04-19T06:58:50.685Z,42.3
2018-04-19T06:59:41.016Z,42.4
2018-04-19T07:00:31.681Z,42.5
2018-04-19T07:01:21.440Z,42.7
2018-04-19T07:02:11.513Z,42.8
2018-04-19T07:03:01.350Z,42.9
2018-04-19T07:03:51.635Z,43.1
2018-04-19T07:04:41.394Z,43.2
2018-04-19T07:05:32.002Z,43.3
2018-04-19T07:06:22.048Z,43.5
2018-04-19T07:07:12.135Z,43.7
2018-04-19T07:08:02.242Z,43.8
2018-04-19T07:08:52.287Z,43.9
2018-04-19T07:09:42.327Z,44
2018-04-19T07:10:32.139Z,44.1
2018-04-19T07:11:21.904Z,44.2
2018-04-19T07:12:11.437Z,44.3
2018-04-19T07:13:02.323Z,44.5
2018-04-19T07:13:52.689Z,44.6
2018-04-19T07:14:42.783Z,44.8
2018-04-19T07:15:32.507Z,44.9
2018-04-19T07:16:22.579Z,45
2018-04-19T07:17:12.915Z,45.1
2018-04-19T07:18:03.013Z,45.3
2018-04-19T07:18:52.774Z,45.4
2018-04-19T07:19:42.830Z,45.5
2018-04-19T07:20:32.435Z,45.7
2018-04-19T07:21:22.751Z,45.8
2018-04-19T07:22:12.208Z,45.9
2018-04-19T07:23:02.540Z,46.1
2018-04-19T07:23:52.102Z,46.2
2018-04-19T07:24:43.304Z,46.3
2018-04-19T07:25:31.969Z,46.4
2018-04-19T07:26:23.652Z,46.6
2018-04-19T07:27:12.923Z,46.7
2018-04-19T07:28:03.484Z,46.9
2018-04-19T07:28:53.526Z,47
2018-04-19T07:29:43.091Z,47.1
2018-04-19T07:30:33.926Z,47.3
2018-04-19T07:31:24.060Z,47.1
2018-04-19T07:32:14.177Z,47.1
2018-04-19T07:33:03.086Z,47.2
2018-04-19T07:33:53.724Z,47.4
2018-04-19T07:34:43.688Z,47.5
2018-04-19T07:35:34.323Z,47.7
2018-04-19T07:36:23.823Z,47.8
2018-04-19T07:37:14.507Z,47.9
2018-04-19T07:38:03.678Z,48.1
2018-04-19T07:38:53.728Z,48.2
2018-04-19T07:39:44.642Z,48.3
2018-04-19T07:40:34.768Z,48.5
2018-04-19T07:41:24.772Z,48.6
2018-04-19T07:42:14.870Z,48.8
2018-04-19T07:43:04.914Z,48.9
2018-04-19T07:43:54.670Z,49.1
2018-04-19T07:44:44.480Z,49.3
2018-04-19T07:45:34.820Z,49.4
2018-04-19T07:46:24.592Z,49.6
2018-04-19T07:47:14.467Z,49.8
2018-04-19T07:48:04.463Z,49.9
2018-04-19T07:48:55.364Z,50.1
2018-04-19T07:49:45.422Z,50.3
2018-04-19T07:50:35.499Z,50.4
2018-04-19T07:51:25.401Z,50.5
2018-04-19T07:52:15.611Z,50.7
2018-04-19T07:53:05.385Z,50.8
2018-04-19T07:53:55.481Z,51
2018-04-19T07:54:45.512Z,51.1
2018-04-19T07:55:35.839Z,51.3
2018-04-19T07:56:25.069Z,51.4
2018-04-19T07:57:14.962Z,51.5
2018-04-19T07:58:06.099Z,51.7
2018-04-19T07:58:55.855Z,51.8
2018-04-19T08:00:35.922Z,52.1
2018-04-19T08:01:26.074Z,52.2
2018-04-19T08:03:06.436Z,52.4
2018-04-19T08:03:55.423Z,52.6
2018-04-19T08:04:46.574Z,52.8
2018-04-19T08:05:36.464Z,52.9
2018-04-19T08:06:26.157Z,53
2018-04-19T08:07:15.995Z,53.1
2018-04-19T08:08:06.851Z,53.3
2018-04-19T08:08:55.767Z,53.4
2018-04-19T08:09:45.639Z,53.6
2018-04-19T08:10:36.786Z,53.7
2018-04-19T08:11:26.873Z,53.9
2018-04-19T08:12:16.884Z,54
2018-04-19T08:13:06.383Z,54.1
2018-04-19T08:13:57.047Z,54.3
2018-04-19T08:14:46.793Z,54.3
2018-04-19T08:15:36.916Z,54.4
2018-04-19T08:16:26.646Z,54.6
2018-04-19T08:17:17.318Z,54.6
2018-04-19T08:18:06.501Z,54.8
2018-04-19T08:18:57.790Z,54.9
2018-04-19T08:19:46.906Z,55.1
2018-04-19T08:20:37.518Z,55.1
2018-04-19T08:21:27.305Z,55.3
2018-04-19T08:22:17.373Z,55.4
2018-04-19T08:23:07.741Z,55.5
2018-04-19T08:23:58.051Z,55.6
2018-04-19T08:24:46.802Z,55.8
2018-04-19T08:25:36.863Z,55.9
2018-04-19T08:26:26.923Z,55.9
2018-04-19T08:27:17.448Z,56.1
2018-04-19T08:28:07.249Z,56.3
2018-04-19T08:28:57.151Z,56.4
2018-04-19T08:29:48.488Z,56.4
2018-04-19T08:30:38.017Z,56.6
2018-04-19T08:31:28.607Z,56.7
2018-04-19T08:32:17.649Z,56.8
2018-04-19T08:33:07.991Z,56.9
2018-04-19T08:33:58.837Z,57
2018-04-19T08:34:48.892Z,57
2018-04-19T08:35:38.179Z,57.1
2018-04-19T08:36:28.452Z,57.2
2018-04-19T08:37:17.951Z,57.3
2018-04-19T08:38:08.862Z,57.4
2018-04-19T08:38:59.228Z,57.4
2018-04-19T08:39:49.276Z,57.5
2018-04-19T08:40:38.814Z,57.6
2018-04-19T08:41:29.426Z,57.7
2018-04-19T08:43:08.777Z,57.9
2018-04-19T08:43:59.066Z,57.9
2018-04-19T08:44:49.414Z,58
2018-04-19T08:45:39.737Z,58.1
2018-04-19T08:46:29.544Z,58.1
2018-04-19T08:47:19.842Z,58.3
2018-04-19T08:48:09.931Z,58.3
2018-04-19T08:48:59.433Z,58.4
2018-04-19T08:50:39.824Z,58.7
2018-04-19T08:51:30.154Z,58.8
2018-04-19T08:52:19.978Z,58.9
2018-04-19T08:53:09.762Z,58.9
2018-04-19T08:53:59.546Z,59.1
2018-04-19T08:54:49.968Z,59.1
2018-04-19T08:55:40.217Z,59.2
2018-04-19T08:56:30.234Z,59.3
2018-04-19T08:57:20.373Z,59.4
2018-04-19T08:58:10.143Z,59.5
2018-04-19T08:59:00.768Z,59.6
2018-04-19T08:59:50.261Z,59.6
2018-04-19T09:00:40.061Z,59.7
2018-04-19T09:01:30.112Z,59.8
2018-04-19T09:02:21.032Z,59.9
2018-04-19T09:03:10.800Z,59.9
2018-04-19T09:04:00.912Z,60.1
2018-04-19T09:04:50.661Z,60.1
2018-04-19T09:05:40.710Z,60.2
2018-04-19T09:06:30.790Z,60.3
2018-04-19T09:07:21.157Z,60.4
2018-04-19T09:08:10.455Z,60.5
2018-04-19T09:09:01.541Z,60.6
2018-04-19T09:09:51.626Z,60.6
2018-04-19T09:10:41.133Z,60.8
2018-04-19T09:11:31.201Z,60.9
2018-04-19T09:12:21.258Z,60.9
2018-04-19T09:13:11.871Z,61
2018-04-19T09:14:01.203Z,61.1
2018-04-19T09:14:51.418Z,61.2
2018-04-19T09:15:41.490Z,61.3
2018-04-19T09:16:31.875Z,61.4
2018-04-19T09:17:21.909Z,61.5
2018-04-19T09:18:12.033Z,61.6
2018-04-19T09:19:01.784Z,61.6
2018-04-19T09:19:51.862Z,61.8
2018-04-19T09:20:42.443Z,61.8
2018-04-19T09:21:32.213Z,61.9
2018-04-19T09:22:22.690Z,62
2018-04-19T09:23:12.789Z,62.1
2018-04-19T09:24:02.172Z,62.1
2018-04-19T09:24:52.244Z,62.2
2018-04-19T09:25:42.868Z,62.3
2018-04-19T09:26:32.627Z,62.4
2018-04-19T09:27:22.710Z,62.5
2018-04-19T09:28:12.479Z,62.6
2018-04-19T09:29:02.011Z,62.6
2018-04-19T09:29:52.932Z,62.8
2018-04-19T09:30:43.212Z,62.9
2018-04-19T09:31:33.051Z,62.9
2018-04-19T09:32:23.372Z,63
2018-04-19T09:33:13.154Z,63.1
2018-04-19T09:34:02.948Z,63.2
2018-04-19T09:34:53.291Z,63.3
2018-04-19T09:35:43.630Z,63.4
2018-04-19T09:36:33.401Z,63.4
2018-04-19T09:37:23.484Z,63.5
2018-04-19T09:38:13.816Z,63.6
2018-04-19T09:39:03.888Z,63.6
2018-04-19T09:39:53.958Z,63.8
2018-04-19T09:40:44.039Z,63.8
2018-04-19T09:41:33.805Z,63.9
2018-04-19T09:42:23.589Z,64.1
2018-04-19T09:43:14.193Z,64.1
2018-04-19T09:44:04.015Z,64.2
2018-04-19T09:44:54.336Z,64.3
2018-04-19T09:45:44.386Z,64.4
2018-04-19T09:46:33.920Z,64.4
2018-04-19T09:47:23.203Z,64.4
2018-04-19T09:48:14.305Z,64.6
2018-04-19T09:49:04.676Z,64.7
2018-04-19T09:49:54.506Z,64.8
2018-04-19T09:50:43.966Z,64.9
2018-04-19T09:51:34.307Z,65
2018-04-19T09:52:24.922Z,65.1
2018-04-19T09:53:14.454Z,65.3
2018-04-19T09:54:05.575Z,65.3
2018-04-19T09:54:54.832Z,65.3
2018-04-19T09:55:44.894Z,65.4
2018-04-19T09:56:34.739Z,65.6
2018-04-19T09:57:25.046Z,65.7
2018-04-19T09:58:14.833Z,65.7
2018-04-19T09:59:05.159Z,65.8
2018-04-19T09:59:54.971Z,65.8
2018-04-19T10:00:44.852Z,66
2018-04-19T10:01:35.377Z,66
2018-04-19T10:02:25.794Z,66.1
2018-04-19T10:03:15.213Z,66.1
2018-04-19T10:04:05.022Z,66.3
2018-04-19T10:04:55.915Z,66.4
2018-04-19T10:05:45.675Z,66.5
2018-04-19T10:06:35.766Z,66.6
2018-04-19T10:07:24.670Z,66.6
2018-04-19T10:08:15.892Z,66.7
2018-04-19T10:09:05.676Z,66.8
2018-04-19T10:09:56.023Z,66.8
2018-04-19T10:10:46.072Z,66.9
2018-04-19T10:11:36.154Z,67
2018-04-19T10:12:26.216Z,67.1
2018-04-19T10:13:15.978Z,67.1
2018-04-19T10:14:06.669Z,67.2
2018-04-19T10:14:56.134Z,67.3
2018-04-19T10:15:45.916Z,67.4
2018-04-19T10:16:35.696Z,67.4
2018-04-19T10:17:26.039Z,67.6
2018-04-19T10:18:15.535Z,67.7
2018-04-19T10:19:06.790Z,67.8
2018-04-19T10:19:57.086Z,67.9
2018-04-19T10:20:47.171Z,67.9
2018-04-19T10:21:36.937Z,68
2018-04-19T10:22:26.989Z,68.1
2018-04-19T10:23:16.507Z,68.2
2018-04-19T10:24:07.164Z,68.3
2018-04-19T10:24:56.619Z,68.3
2018-04-19T10:25:47.530Z,68.4
2018-04-19T10:26:37.052Z,68.5
2018-04-19T10:27:27.779Z,68.6
2018-04-19T10:28:17.444Z,68.6
2018-04-19T10:29:07.529Z,68.7
2018-04-19T10:29:57.856Z,68.8
2018-04-19T10:30:47.686Z,68.9
2018-04-19T10:31:37.145Z,69
2018-04-19T10:32:27.784Z,68.9
2018-04-19T10:33:17.851Z,69
2018-04-19T10:34:08.171Z,69.1
2018-04-19T10:34:58.263Z,69.2
2018-04-19T10:35:47.748Z,69.3
2018-04-19T10:36:38.076Z,69.3
2018-04-19T10:37:28.433Z,69.3
2018-04-19T10:38:18.270Z,69.3
2018-04-19T10:39:08.598Z,69.3
2018-04-19T10:39:58.658Z,69.4
2018-04-19T10:40:48.114Z,69.5
2018-04-19T10:41:38.763Z,69.6
2018-04-19T10:42:28.260Z,69.7
2018-04-19T10:43:18.028Z,69.8
2018-04-19T10:44:08.974Z,69.7
2018-04-19T10:44:59.082Z,69.6
2018-04-19T10:45:48.546Z,69.6
2018-04-19T10:46:38.885Z,69.6
2018-04-19T10:47:28.649Z,69.7
2018-04-19T10:48:18.743Z,69.8
2018-04-19T10:49:09.342Z,70
2018-04-19T10:49:58.003Z,70.1
2018-04-19T10:50:48.943Z,70.1
2018-04-19T10:51:39.012Z,70.2
2018-04-19T10:52:29.330Z,70.3
2018-04-19T10:53:19.680Z,70.3
2018-04-19T10:54:09.219Z,70.4
2018-04-19T10:54:59.517Z,70.5
2018-04-19T10:55:49.637Z,70.5
2018-04-19T10:56:39.429Z,70.6
2018-04-19T10:57:29.714Z,70.7
2018-04-19T10:58:19.510Z,70.6
2018-04-19T10:59:10.221Z,70.3
2018-04-19T11:00:00.200Z,69.8
2018-04-19T11:00:49.707Z,69.4
2018-04-19T11:01:39.189Z,69.4
2018-04-19T11:02:29.818Z,69.8
2018-04-19T11:03:20.159Z,70.2
2018-04-19T11:04:10.518Z,70.5
2018-04-19T11:05:00.024Z,70.6
2018-04-19T11:05:50.633Z,70.7
2018-04-19T11:06:40.424Z,70.8
2018-04-19T11:07:30.223Z,70.9
2018-04-19T11:08:20.286Z,71
2018-04-19T11:09:10.893Z,71.1
2018-04-19T11:10:00.688Z,71.3
2018-04-19T11:10:51.028Z,71.3
2018-04-19T11:11:40.589Z,71.3
2018-04-19T11:12:31.216Z,71.4